createdAt,value
2023-01-17T00:02:04.068Z,15.35
2023-01-17T00:04:49.138Z,18.20
2023-01-17T00:07:36.546Z,17.08
2023-01-17T00:10:13.153Z,15.95
2023-01-17T00:12:40.090Z,18.00
2023-01-17T00:15:07.759Z,18.10
2023-01-17T00:17:34.639Z,17.95
2023-01-17T00:20:20.376Z,15.80
2023-01-17T00:23:05.709Z,16.58
2023-01-17T00:25:55.887Z,16.42
2023-01-17T00:28:23.497Z,16.38
2023-01-17T00:30:50.709Z,18.15
2023-01-17T00:33:17.443Z,18.00
2023-01-17T00:35:45.481Z,18.90
2023-01-17T00:38:14.942Z,16.80
2023-01-17T00:40:43.490Z,17.25
2023-01-17T00:43:30.308Z,18.52
2023-01-17T00:46:15.893Z,16.55
2023-01-17T00:49:01.953Z,19.83
2023-01-17T00:51:48.644Z,18.15
2023-01-17T00:54:34.301Z,18.25
2023-01-17T00:57:20.572Z,19.20
2023-01-17T01:00:06.060Z,19.85
2023-01-17T01:02:51.717Z,17.20
2023-01-17T01:05:37.150Z,17.25
2023-01-17T01:08:32.630Z,17.47
2023-01-17T01:11:17.996Z,17.52
2023-01-17T01:14:03.569Z,19.60
2023-01-17T01:16:49.012Z,18.30
2023-01-17T01:19:34.539Z,17.52
2023-01-17T01:22:20.020Z,15.80
2023-01-17T01:25:05.501Z,18.02
2023-01-17T01:27:51.053Z,16.90
2023-01-17T01:30:36.667Z,17.93
2023-01-17T01:33:20.060Z,18.33
2023-01-17T01:35:54.115Z,17.50
2023-01-17T01:38:23.388Z,18.45
2023-01-17T01:40:55.591Z,17.13
2023-01-17T01:43:52.508Z,18.17
2023-01-17T01:48:57.585Z,19.75
2023-01-17T01:51:31.932Z,17.73
2023-01-17T01:54:07.757Z,18.50
2023-01-17T01:56:34.847Z,18.75
2023-01-17T01:59:04.214Z,17.90
2023-01-17T02:01:31.708Z,17.67
2023-01-17T02:03:58.859Z,20.13
2023-01-17T02:06:38.312Z,18.38
2023-01-17T02:09:08.887Z,17.73
2023-01-17T02:11:38.720Z,20.10
2023-01-17T02:14:05.851Z,19.88
2023-01-17T02:16:53.502Z,18.58
2023-01-17T02:19:39.048Z,18.38
2023-01-17T02:22:17.816Z,18.33
2023-01-17T02:25:13.478Z,17.85
2023-01-17T02:28:04.101Z,18.48
2023-01-17T02:30:56.268Z,19.38
2023-01-17T02:33:27.952Z,16.05
2023-01-17T02:36:04.607Z,17.27
2023-01-17T02:38:51.249Z,15.32
2023-01-17T02:43:44.678Z,17.58
2023-01-17T02:46:11.583Z,18.38
2023-01-17T02:48:39.344Z,18.70
2023-01-17T02:51:19.577Z,17.42
2023-01-17T02:53:49.030Z,17.65
2023-01-17T02:56:28.764Z,19.10
2023-01-17T02:59:19.434Z,14.68
2023-01-17T03:02:17.128Z,18.75
2023-01-17T03:05:06.567Z,18.08
2023-01-17T03:07:34.162Z,18.83
2023-01-17T03:10:04.979Z,18.33
2023-01-17T03:12:35.805Z,17.55
2023-01-17T03:15:02.693Z,19.85
2023-01-17T03:17:32.535Z,18.40
2023-01-17T03:19:59.377Z,16.98
2023-01-17T03:22:26.227Z,19.85
2023-01-17T03:24:52.972Z,19.55
2023-01-17T03:27:19.750Z,19.48
2023-01-17T03:29:46.513Z,19.65
2023-01-17T03:32:13.249Z,20.38
2023-01-17T03:34:39.942Z,17.08
2023-01-17T03:37:06.727Z,20.52
2023-01-17T03:39:33.448Z,19.52
2023-01-17T03:42:00.189Z,19.40
2023-01-17T03:44:26.946Z,19.77
2023-01-17T03:46:53.661Z,18.60
2023-01-17T03:49:20.868Z,20.02
2023-01-17T03:51:47.641Z,19.60
2023-01-17T03:54:14.511Z,18.77
2023-01-17T03:56:41.356Z,20.40
2023-01-17T03:59:08.145Z,19.42
2023-01-17T04:01:35.030Z,19.02
2023-01-17T04:04:01.894Z,21.23
2023-01-17T04:06:28.670Z,20.80
2023-01-17T04:08:55.425Z,17.83
2023-01-17T04:11:22.219Z,19.92
2023-01-17T04:13:48.990Z,21.90
2023-01-17T04:16:18.093Z,19.48
2023-01-17T04:18:44.860Z,20.98
2023-01-17T04:21:11.801Z,21.13
2023-01-17T04:23:38.712Z,18.92
2023-01-17T04:26:05.657Z,17.75
2023-01-17T04:28:32.407Z,19.27
2023-01-17T04:31:00.028Z,20.73
2023-01-17T04:33:27.035Z,19.60
2023-01-17T04:35:54.430Z,20.92
2023-01-17T04:38:23.793Z,21.70
2023-01-17T04:40:51.417Z,20.10
2023-01-17T04:43:18.307Z,22.65
2023-01-17T04:45:45.057Z,21.75
2023-01-17T04:48:12.914Z,25.05
2023-01-17T04:50:40.117Z,21.80
2023-01-17T04:53:07.098Z,21.88
2023-01-17T04:55:33.961Z,23.35
2023-01-17T04:58:00.761Z,23.02
2023-01-17T05:00:27.522Z,24.17
2023-01-17T05:02:54.489Z,25.42
2023-01-17T05:05:21.313Z,24.98
2023-01-17T05:07:56.015Z,24.77
2023-01-17T05:10:23.327Z,21.67
2023-01-17T05:13:00.039Z,25.08
2023-01-17T05:15:27.440Z,24.40
2023-01-17T05:17:54.706Z,24.95
2023-01-17T05:20:23.432Z,24.25
2023-01-17T05:22:57.346Z,22.23
2023-01-17T05:25:26.369Z,24.73
2023-01-17T05:27:53.982Z,23.08
2023-01-17T05:30:21.184Z,24.67
2023-01-17T05:32:53.685Z,23.52
2023-01-17T05:35:23.968Z,23.83
2023-01-17T05:37:51.322Z,28.17
2023-01-17T05:40:23.939Z,27.88
2023-01-17T05:42:52.991Z,28.98
2023-01-17T05:45:21.114Z,28.67
2023-01-17T05:47:49.719Z,27.15
2023-01-17T05:50:25.652Z,29.17
2023-01-17T05:55:21.126Z,28.73
2023-01-17T05:57:48.139Z,29.70
2023-01-17T06:00:16.413Z,30.35
2023-01-17T06:02:43.934Z,30.42
2023-01-17T06:05:11.414Z,27.60
2023-01-17T06:07:38.182Z,29.65
2023-01-17T06:10:06.027Z,30.75
2023-01-17T06:12:32.825Z,26.17
2023-01-17T06:14:59.634Z,27.77
2023-01-17T06:17:26.355Z,32.30
2023-01-17T06:19:53.117Z,32.10
2023-01-17T06:22:20.200Z,29.17
2023-01-17T06:24:47.000Z,33.25
2023-01-17T06:27:13.740Z,31.73
2023-01-17T06:29:40.517Z,29.58
2023-01-17T06:32:07.373Z,30.27
2023-01-17T06:34:34.278Z,32.85
2023-01-17T06:37:01.077Z,33.42
2023-01-17T06:39:27.862Z,34.45
2023-01-17T06:41:54.858Z,33.60
2023-01-17T06:44:21.650Z,32.63
2023-01-17T06:46:48.595Z,32.50
2023-01-17T06:49:15.555Z,29.83
2023-01-17T06:51:43.701Z,29.25
2023-01-17T06:54:11.273Z,33.42
2023-01-17T06:56:38.194Z,28.50
2023-01-17T06:59:05.275Z,30.10
2023-01-17T07:01:32.171Z,29.40
2023-01-17T07:03:59.714Z,30.10
2023-01-17T07:06:28.763Z,27.25
2023-01-17T07:08:56.478Z,30.80
2023-01-17T07:11:23.397Z,33.40
2023-01-17T07:13:50.749Z,32.40
2023-01-17T07:16:17.646Z,30.02
2023-01-17T07:18:44.515Z,29.80
2023-01-17T07:21:15.214Z,31.08
2023-01-17T07:23:42.455Z,27.65
2023-01-17T07:26:09.379Z,31.23
2023-01-17T07:28:36.176Z,30.05
2023-01-17T07:31:07.988Z,30.55
2023-01-17T07:33:35.294Z,30.88
2023-01-17T07:36:07.606Z,29.85
2023-01-17T07:38:35.202Z,32.50
2023-01-17T07:41:02.379Z,31.65
2023-01-17T07:43:29.316Z,29.55
2023-01-17T07:45:56.354Z,25.67
2023-01-17T07:48:24.627Z,30.13
2023-01-17T07:50:56.024Z,29.77
2023-01-17T07:53:28.119Z,32.28
2023-01-17T07:55:55.413Z,31.80
2023-01-17T07:58:22.485Z,32.63
2023-01-17T08:00:49.404Z,30.95
2023-01-17T08:03:17.817Z,30.02
2023-01-17T08:05:54.018Z,32.70
2023-01-17T08:08:21.155Z,29.88
2023-01-17T08:10:47.929Z,34.53
2023-01-17T08:13:14.794Z,33.13
2023-01-17T08:15:41.504Z,34.90
2023-01-17T08:18:08.290Z,31.80
2023-01-17T08:20:35.036Z,36.17
2023-01-17T08:23:01.807Z,32.22
2023-01-17T08:25:28.669Z,35.70
2023-01-17T08:27:58.975Z,36.95
2023-01-17T08:30:26.811Z,33.20
2023-01-17T08:32:54.151Z,32.40
2023-01-17T08:35:21.559Z,37.08
2023-01-17T08:37:48.919Z,37.00
2023-01-17T08:40:18.510Z,35.55
2023-01-17T08:42:53.074Z,34.35
2023-01-17T08:45:19.981Z,34.53
2023-01-17T08:47:46.711Z,36.88
2023-01-17T08:50:13.584Z,37.47
2023-01-17T08:52:40.493Z,34.75
2023-01-17T08:55:10.143Z,36.42
2023-01-17T08:57:37.068Z,36.70
2023-01-17T09:00:04.278Z,34.88
2023-01-17T09:02:31.026Z,34.67
2023-01-17T09:04:57.731Z,36.80
2023-01-17T09:07:25.115Z,34.33
2023-01-17T09:09:52.708Z,32.88
2023-01-17T09:12:22.172Z,35.75
2023-01-17T09:14:49.083Z,36.30
2023-01-17T09:17:15.991Z,36.33
2023-01-17T09:19:48.189Z,33.97
2023-01-17T09:22:15.105Z,34.88
2023-01-17T09:24:42.189Z,35.40
2023-01-17T09:27:09.028Z,34.22
2023-01-17T09:29:36.016Z,37.95
2023-01-17T09:32:03.288Z,36.72
2023-01-17T09:34:30.684Z,33.55
2023-01-17T09:36:57.559Z,33.35
2023-01-17T09:39:24.419Z,38.25
2023-01-17T09:41:57.124Z,36.63
2023-01-17T09:44:28.382Z,37.88
2023-01-17T09:47:00.076Z,35.78
2023-01-17T09:49:29.832Z,34.45
2023-01-17T09:51:56.682Z,36.92
2023-01-17T09:54:27.697Z,36.17
2023-01-17T09:57:12.999Z,36.22
2023-01-17T10:00:04.543Z,35.95
2023-01-17T10:02:59.967Z,36.70
2023-01-17T10:05:47.783Z,36.63
2023-01-17T10:08:39.936Z,36.42
2023-01-17T10:11:34.565Z,35.10
2023-01-17T10:14:19.361Z,37.72
2023-01-17T10:16:58.159Z,38.47
2023-01-17T10:19:39.895Z,37.38
2023-01-17T10:22:25.658Z,38.22
2023-01-17T10:25:13.187Z,39.72
2023-01-17T10:28:00.156Z,37.10
2023-01-17T10:30:38.102Z,39.15
2023-01-17T10:33:14.948Z,38.13
2023-01-17T10:35:59.417Z,37.83
2023-01-17T10:38:38.327Z,30.33
2023-01-17T10:41:10.933Z,32.67
2023-01-17T10:43:59.523Z,41.55
2023-01-17T10:46:31.444Z,39.00
2023-01-17T10:48:58.735Z,39.35
2023-01-17T10:51:31.690Z,41.35
2023-01-17T10:54:10.427Z,40.30
2023-01-17T10:56:40.375Z,35.80
2023-01-17T10:59:08.267Z,32.35
2023-01-17T11:01:35.151Z,41.85
2023-01-17T11:04:02.323Z,40.30
2023-01-17T11:06:29.134Z,41.17
2023-01-17T11:08:58.227Z,41.85
2023-01-17T11:11:31.025Z,40.88
2023-01-17T11:14:01.005Z,40.15
2023-01-17T11:16:33.728Z,38.60
2023-01-17T11:19:28.614Z,38.83
2023-01-17T11:22:01.703Z,40.30
2023-01-17T11:24:32.337Z,40.00
2023-01-17T11:26:59.525Z,40.28
2023-01-17T11:29:40.059Z,38.83
2023-01-17T11:32:32.768Z,40.55
2023-01-17T11:35:21.251Z,41.08
2023-01-17T11:37:50.110Z,40.15
2023-01-17T11:40:25.933Z,40.30
2023-01-17T11:43:06.287Z,42.63
2023-01-17T11:45:34.868Z,38.92
2023-01-17T11:48:11.155Z,40.38
2023-01-17T11:50:42.342Z,38.17
2023-01-17T11:53:18.549Z,37.13
2023-01-17T11:56:08.474Z,38.33
2023-01-17T11:58:37.992Z,36.22
2023-01-17T12:01:29.629Z,40.33
2023-01-17T12:04:17.512Z,40.13
2023-01-17T12:07:16.533Z,40.78
2023-01-17T12:10:04.816Z,42.53
2023-01-17T12:13:33.555Z,44.05
2023-01-17T12:16:31.802Z,43.83
2023-01-17T12:19:17.932Z,42.45
2023-01-17T12:22:05.756Z,44.88
2023-01-17T12:25:11.257Z,45.00
2023-01-17T12:27:53.037Z,43.95
2023-01-17T12:30:30.869Z,43.25
2023-01-17T12:32:57.586Z,42.63
2023-01-17T12:35:48.557Z,44.22
2023-01-17T12:38:31.851Z,39.10
2023-01-17T12:41:18.707Z,40.00
2023-01-17T12:43:45.869Z,40.85
2023-01-17T12:46:27.249Z,35.40
2023-01-17T12:49:02.694Z,41.25
2023-01-17T12:51:33.940Z,45.08
2023-01-17T12:54:19.488Z,41.95
2023-01-17T12:56:48.585Z,39.20
2023-01-17T12:59:22.264Z,41.67
2023-01-17T13:01:59.667Z,44.85
2023-01-17T13:04:41.952Z,42.67
2023-01-17T13:07:45.930Z,43.75
2023-01-17T13:10:32.049Z,42.50
2023-01-17T13:13:04.790Z,40.30
2023-01-17T13:15:37.554Z,42.53
2023-01-17T13:18:13.317Z,32.67
2023-01-17T13:21:06.015Z,42.88
2023-01-17T13:23:38.700Z,43.83
2023-01-17T13:26:14.664Z,48.38
2023-01-17T13:31:56.769Z,42.80
2023-01-17T13:34:37.918Z,43.95
2023-01-17T13:37:26.424Z,38.42
2023-01-17T13:40:21.137Z,43.55
2023-01-17T13:43:01.219Z,35.75
2023-01-17T13:45:31.361Z,39.70
2023-01-17T13:48:34.669Z,38.63
2023-01-17T13:51:09.266Z,38.60
2023-01-17T13:53:36.857Z,40.50
2023-01-17T13:56:15.817Z,39.35
2023-01-17T13:58:54.818Z,41.90
2023-01-17T14:01:24.799Z,43.83
2023-01-17T14:03:51.876Z,37.22
2023-01-17T14:06:33.652Z,43.05
2023-01-17T14:09:08.487Z,45.88
2023-01-17T14:11:57.041Z,41.28
2023-01-17T14:14:41.962Z,38.92
2023-01-17T14:17:22.619Z,42.97
2023-01-17T14:19:53.764Z,43.03
2023-01-17T14:22:20.513Z,44.58
2023-01-17T14:25:09.855Z,41.83
2023-01-17T14:27:49.566Z,41.92
2023-01-17T14:30:33.170Z,45.60
2023-01-17T14:33:03.053Z,44.28
2023-01-17T14:35:32.823Z,45.58
2023-01-17T14:38:02.902Z,44.45
2023-01-17T14:40:35.700Z,42.40
2023-01-17T14:43:05.257Z,46.20
2023-01-17T14:45:34.998Z,47.67
2023-01-17T14:48:07.164Z,45.63
2023-01-17T14:50:37.915Z,47.72
2023-01-17T14:53:13.795Z,47.15
2023-01-17T14:55:57.236Z,49.63
2023-01-17T14:58:27.300Z,45.42
2023-01-17T15:01:00.213Z,48.05
2023-01-17T15:03:27.995Z,45.22
2023-01-17T15:05:57.663Z,47.60
2023-01-17T15:08:32.155Z,46.22
2023-01-17T15:11:03.000Z,44.75
2023-01-17T15:13:44.332Z,48.58
2023-01-17T15:16:29.810Z,48.78
2023-01-17T15:18:57.447Z,44.00
2023-01-17T15:21:29.730Z,47.85
2023-01-17T15:24:03.339Z,45.03
2023-01-17T15:26:34.447Z,48.20
2023-01-17T15:29:12.470Z,48.22
2023-01-17T15:31:41.293Z,42.67
2023-01-17T15:34:13.899Z,44.30
2023-01-17T15:36:40.928Z,42.63
2023-01-17T15:39:18.934Z,43.38
2023-01-17T15:41:47.529Z,40.15
2023-01-17T15:44:48.189Z,39.75
2023-01-17T15:47:31.432Z,39.00
2023-01-17T15:49:59.808Z,38.78
2023-01-17T15:52:26.996Z,40.42
2023-01-17T15:55:18.183Z,43.28
2023-01-17T15:57:47.714Z,43.33
2023-01-17T16:00:18.981Z,40.95
2023-01-17T16:02:58.774Z,38.95
2023-01-17T16:05:27.561Z,38.45
2023-01-17T16:07:56.701Z,37.67
2023-01-17T16:10:28.782Z,39.30
2023-01-17T16:12:58.868Z,36.53
2023-01-17T16:15:26.997Z,38.22
2023-01-17T16:17:57.699Z,35.40
2023-01-17T16:20:30.678Z,36.60
2023-01-17T16:22:57.424Z,36.15
2023-01-17T16:25:25.315Z,37.17
2023-01-17T16:27:53.023Z,37.00
2023-01-17T16:30:23.743Z,34.45
2023-01-17T16:32:51.142Z,37.47
2023-01-17T16:35:23.707Z,38.42
2023-01-17T16:37:55.650Z,34.25
2023-01-17T16:40:24.988Z,38.10
2023-01-17T16:42:51.924Z,35.58
2023-01-17T16:45:19.061Z,37.60
2023-01-17T16:47:48.073Z,37.75
2023-01-17T16:50:22.353Z,35.33
2023-01-17T16:52:53.349Z,36.17
2023-01-17T16:55:24.599Z,32.92
2023-01-17T16:57:54.144Z,35.55
2023-01-17T17:00:22.723Z,34.40
2023-01-17T17:02:50.946Z,36.10
2023-01-17T17:05:18.440Z,33.28
2023-01-17T17:07:50.773Z,32.83
2023-01-17T17:10:21.667Z,32.00
2023-01-17T17:12:48.526Z,31.83
2023-01-17T17:15:15.250Z,30.60
2023-01-17T17:17:43.189Z,32.83
2023-01-17T17:20:13.683Z,33.08
2023-01-17T17:22:44.060Z,32.70
2023-01-17T17:25:15.965Z,33.60
2023-01-17T17:27:43.133Z,33.63
2023-01-17T17:30:10.876Z,32.20
2023-01-17T17:32:37.622Z,31.48
2023-01-17T17:35:05.113Z,33.30
2023-01-17T17:37:31.907Z,32.95
2023-01-17T17:39:58.904Z,33.45
2023-01-17T17:42:25.911Z,31.88
2023-01-17T17:44:52.767Z,34.63
2023-01-17T17:47:19.481Z,33.15
2023-01-17T17:49:46.298Z,32.55
2023-01-17T17:52:13.224Z,35.90
2023-01-17T17:54:40.004Z,35.90
2023-01-17T17:57:07.595Z,36.25
2023-01-17T17:59:34.484Z,35.22
2023-01-17T18:02:01.421Z,37.38
2023-01-17T18:04:28.347Z,35.83
2023-01-17T18:06:58.461Z,35.08
2023-01-17T18:09:25.410Z,37.83
2023-01-17T18:11:52.411Z,36.20
2023-01-17T18:14:21.213Z,34.78
2023-01-17T18:16:48.567Z,32.92
2023-01-17T18:19:18.007Z,33.42
2023-01-17T18:21:45.399Z,33.15
2023-01-17T18:24:15.424Z,32.83
2023-01-17T18:26:57.614Z,32.15
2023-01-17T18:29:26.278Z,32.42
2023-01-17T18:31:54.226Z,32.65
2023-01-17T18:34:24.208Z,33.08
2023-01-17T18:36:51.504Z,32.22
2023-01-17T18:39:21.024Z,31.65
2023-01-17T18:41:48.381Z,31.45
2023-01-17T18:44:15.601Z,31.92
2023-01-17T18:46:43.209Z,32.20
2023-01-17T18:49:11.738Z,33.53
2023-01-17T18:51:38.801Z,32.05
2023-01-17T18:54:07.123Z,31.35
2023-01-17T18:56:34.716Z,31.35
2023-01-17T18:59:05.777Z,33.53
2023-01-17T19:01:35.657Z,33.17
2023-01-17T19:04:05.183Z,35.40
2023-01-17T19:06:34.779Z,31.83
2023-01-17T19:09:02.801Z,31.45
2023-01-17T19:11:30.302Z,29.20
2023-01-17T19:13:57.354Z,29.45
2023-01-17T19:16:29.977Z,29.63
2023-01-17T19:19:08.562Z,30.08
2023-01-17T19:21:36.008Z,27.58
2023-01-17T19:24:03.279Z,31.30
2023-01-17T19:26:30.142Z,29.02
2023-01-17T19:28:58.991Z,31.58
2023-01-17T19:31:30.863Z,30.15
2023-01-17T19:33:59.266Z,28.35
2023-01-17T19:36:33.630Z,30.50
2023-01-17T19:39:05.862Z,29.65
2023-01-17T19:41:35.374Z,28.85
2023-01-17T19:44:05.317Z,28.63
2023-01-17T19:46:32.526Z,29.55
2023-01-17T19:48:59.688Z,27.88
2023-01-17T19:51:27.714Z,28.75
2023-01-17T19:53:54.928Z,26.98
2023-01-17T19:56:24.277Z,30.42
2023-01-17T19:58:52.381Z,28.63
2023-01-17T20:01:28.392Z,29.45
2023-01-17T20:03:57.612Z,28.27
2023-01-17T20:06:28.804Z,25.90
2023-01-17T20:08:56.309Z,27.15
2023-01-17T20:11:24.840Z,27.55
2023-01-17T20:13:54.457Z,27.35
2023-01-17T20:16:22.339Z,29.13
2023-01-17T20:18:49.674Z,30.02
2023-01-17T20:21:24.959Z,28.98
2023-01-17T20:23:52.968Z,29.65
2023-01-17T20:26:22.910Z,30.92
2023-01-17T20:28:51.842Z,29.13
2023-01-17T20:31:24.127Z,29.38
2023-01-17T20:33:53.399Z,29.15
2023-01-17T20:36:22.775Z,29.58
2023-01-17T20:38:49.886Z,27.95
2023-01-17T20:41:22.970Z,28.15
2023-01-17T20:43:55.128Z,31.17
2023-01-17T20:46:24.699Z,29.85
2023-01-17T20:48:57.867Z,27.58
2023-01-17T20:51:26.786Z,30.17
2023-01-17T20:53:59.880Z,28.85
2023-01-17T20:56:27.750Z,29.42
2023-01-17T20:58:55.042Z,30.10
2023-01-17T21:01:22.869Z,29.17
2023-01-17T21:03:51.716Z,32.83
2023-01-17T21:06:19.744Z,31.25
2023-01-17T21:08:47.921Z,31.23
2023-01-17T21:11:17.413Z,29.17
2023-01-17T21:13:44.408Z,29.48
2023-01-17T21:16:16.824Z,30.42
2023-01-17T21:18:52.229Z,30.42
2023-01-17T21:21:22.227Z,29.75
2023-01-17T21:23:50.479Z,29.48
2023-01-17T21:26:18.328Z,28.40
2023-01-17T21:28:46.588Z,29.27
2023-01-17T21:31:24.437Z,29.75
2023-01-17T21:33:56.571Z,29.65
2023-01-17T21:36:26.701Z,27.80
2023-01-17T21:38:56.976Z,29.38
2023-01-17T21:41:29.863Z,31.02
2023-01-17T21:44:02.152Z,26.90
2023-01-17T21:46:30.256Z,27.75
2023-01-17T21:48:57.616Z,28.27
2023-01-17T21:51:45.211Z,26.77
2023-01-17T21:54:12.188Z,28.70
2023-01-17T21:56:57.679Z,27.45
2023-01-17T21:59:24.453Z,28.33
2023-01-17T22:01:51.242Z,27.63
2023-01-17T22:04:18.012Z,29.35
2023-01-17T22:06:44.730Z,31.05
2023-01-17T22:09:11.486Z,31.20
2023-01-17T22:11:38.317Z,31.00
2023-01-17T22:14:05.462Z,28.92
2023-01-17T22:16:32.631Z,32.00
2023-01-17T22:18:59.422Z,29.70
2023-01-17T22:21:28.326Z,31.70
2023-01-17T22:23:59.904Z,30.27
2023-01-17T22:26:29.456Z,29.65
2023-01-17T22:28:56.386Z,29.58
2023-01-17T22:31:25.829Z,30.35
2023-01-17T22:33:55.054Z,30.02
2023-01-17T22:36:22.604Z,30.25
2023-01-17T22:38:49.734Z,28.83
2023-01-17T22:41:20.237Z,28.85
2023-01-17T22:43:49.442Z,29.08
2023-01-17T22:46:19.016Z,29.38
2023-01-17T22:48:46.138Z,29.77
2023-01-17T22:51:15.616Z,31.05
2023-01-17T22:53:44.888Z,30.27
2023-01-17T22:56:21.408Z,29.30
2023-01-17T22:58:49.095Z,30.35
2023-01-17T23:01:21.306Z,29.70
2023-01-17T23:03:58.220Z,30.70
2023-01-17T23:06:27.748Z,31.20
2023-01-17T23:08:57.032Z,30.77
2023-01-17T23:11:46.219Z,30.92
2023-01-17T23:14:18.858Z,30.85
2023-01-17T23:17:07.501Z,31.25
2023-01-17T23:19:42.789Z,31.42
2023-01-17T23:22:16.266Z,31.02
2023-01-17T23:24:55.045Z,30.40
2023-01-17T23:27:50.751Z,32.42
2023-01-17T23:30:25.038Z,34.05
2023-01-17T23:33:00.145Z,35.10
2023-01-17T23:35:29.730Z,32.38
2023-01-17T23:38:15.504Z,34.33
2023-01-17T23:40:43.194Z,32.92
2023-01-17T23:43:25.716Z,33.17
2023-01-17T23:45:54.336Z,33.05
2023-01-17T23:48:23.917Z,31.95
2023-01-17T23:50:50.850Z,34.60
2023-01-17T23:53:23.192Z,33.17
2023-01-17T23:55:52.214Z,31.60
2023-01-17T23:58:21.314Z,33.47
